Time;durP1;ratioP1;P1;durP2;ratioP2;P2;SDS_P1;SDS_P2;PMS_P1;PMS_P2;Temp;Humidity;BMP_temperature;BMP_pressure;BME280_temperature;BME280_humidity;BME280_pressure;Samples;Min_cycle;Max_cycle;Signal;HPM_P1;HPM_P2
2023/10/25 00:01:07;;;;;;;;;;;10.50;99.90;;;;;;5157815;27;20299;-41
2023/10/25 00:03:34;;;;;;;;;;;10.50;99.90;;;;;;5176387;27;19923;-42
2023/10/25 00:05:59;;;;;;;;;;;10.50;99.90;;;;;;5176317;27;19923;-42
2023/10/25 00:08:25;;;;;;;;;;;10.50;99.90;;;;;;5176182;27;19923;-43
2023/10/25 00:10:50;;;;;;;;;;;10.50;99.90;;;;;;5176751;27;19984;-42
2023/10/25 00:13:16;;;;;;;;;;;10.50;99.90;;;;;;5180027;27;19975;-43
2023/10/25 00:15:41;;;;;;;;;;;10.50;99.90;;;;;;5180297;27;19975;-42
2023/10/25 00:18:07;;;;;;;;;;;10.50;99.90;;;;;;5180202;27;19930;-42
2023/10/25 00:20:32;;;;;;;;;;;10.40;99.90;;;;;;5180201;27;19929;-43
2023/10/25 00:22:58;;;;;;;;;;;10.40;99.90;;;;;;5180259;27;19926;-42
2023/10/25 00:25:24;;;;;;;;;;;10.40;99.90;;;;;;5180013;27;20022;-42
2023/10/25 00:27:49;;;;;;;;;;;10.40;99.90;;;;;;5179828;27;19974;-43
2023/10/25 00:30:15;;;;;;;;;;;10.40;99.90;;;;;;5179909;27;19982;-42
2023/10/25 00:32:42;;;;;;;;;;;10.40;99.90;;;;;;5179927;27;20285;-43
2023/10/25 00:35:08;;;;;;;;;;;10.40;99.90;;;;;;5179633;27;19922;-42
2023/10/25 00:37:34;;;;;;;;;;;10.40;99.90;;;;;;5179966;27;19934;-42
2023/10/25 00:39:59;;;;;;;;;;;10.30;99.90;;;;;;5179699;27;19966;-43
2023/10/25 00:42:25;;;;;;;;;;;10.30;99.90;;;;;;5179482;27;19929;-43
2023/10/25 00:44:50;;;;;;;;;;;10.30;99.90;;;;;;5179746;27;19923;-42
2023/10/25 00:47:16;;;;;;;;;;;10.30;99.90;;;;;;5179591;27;20010;-42
2023/10/25 00:49:42;;;;;;;;;;;10.30;99.90;;;;;;5179830;27;19954;-42
2023/10/25 00:52:07;;;;;;;;;;;10.30;99.90;;;;;;5179793;27;20022;-42
2023/10/25 00:54:33;;;;;;;;;;;10.20;99.90;;;;;;5179507;27;20318;-42
2023/10/25 00:56:59;;;;;;;;;;;10.20;99.90;;;;;;5161079;27;19971;-42
2023/10/25 00:59:25;;;;;;;;;;;10.20;99.90;;;;;;5179435;27;19926;-42
2023/10/25 01:01:51;;;;;;;;;;;10.20;99.90;;;;;;5179311;27;19927;-43
2023/10/25 01:04:17;;;;;;;;;;;10.20;99.90;;;;;;5179279;27;19929;-42
2023/10/25 01:06:42;;;;;;;;;;;10.20;99.90;;;;;;5179254;27;19922;-42
2023/10/25 01:09:08;;;;;;;;;;;10.20;99.90;;;;;;5179126;27;19923;-42
2023/10/25 01:11:34;;;;;;;;;;;10.20;99.90;;;;;;5179073;27;19927;-42
2023/10/25 01:13:59;;;;;;;;;;;10.20;99.90;;;;;;5160583;27;20392;-42
2023/10/25 01:16:25;;;;;;;;;;;10.20;99.90;;;;;;5160751;27;19927;-42
2023/10/25 01:18:50;;;;;;;;;;;10.20;99.90;;;;;;5178958;27;19930;-42
2023/10/25 01:21:16;;;;;;;;;;;10.10;99.90;;;;;;5178961;27;19929;-42
2023/10/25 01:23:42;;;;;;;;;;;10.10;99.90;;;;;;5159227;27;19923;-42
2023/10/25 01:26:07;;;;;;;;;;;10.10;99.90;;;;;;5178872;27;19923;-42
2023/10/25 01:28:33;;;;;;;;;;;10.10;99.90;;;;;;5178889;27;19980;-42
2023/10/25 01:30:59;;;;;;;;;;;10.10;99.90;;;;;;5178725;27;19930;-42
2023/10/25 01:33:25;;;;;;;;;;;10.00;99.90;;;;;;5160333;27;20334;-42
2023/10/25 01:35:51;;;;;;;;;;;10.00;99.90;;;;;;5160115;27;19923;-42
2023/10/25 01:38:17;;;;;;;;;;;10.00;99.90;;;;;;5178453;27;19930;-42
2023/10/25 01:40:42;;;;;;;;;;;9.90;99.90;;;;;;5178541;27;19923;-42
2023/10/25 01:43:08;;;;;;;;;;;9.90;99.90;;;;;;5178608;27;19922;-42
2023/10/25 01:45:33;;;;;;;;;;;9.90;99.90;;;;;;5178961;27;20365;-42
2023/10/25 01:47:59;;;;;;;;;;;9.90;99.90;;;;;;5178494;27;20369;-42
2023/10/25 01:50:24;;;;;;;;;;;9.80;99.90;;;;;;5178279;27;20004;-42
2023/10/25 01:52:50;;;;;;;;;;;9.80;99.90;;;;;;5177973;27;19923;-42
2023/10/25 01:55:15;;;;;;;;;;;9.80;99.90;;;;;;5178164;27;19923;-42
2023/10/25 01:57:42;;;;;;;;;;;9.80;99.90;;;;;;5178597;27;20034;-42
2023/10/25 02:00:08;;;;;;;;;;;9.70;99.90;;;;;;5178255;27;19929;-42
2023/10/25 02:02:33;;;;;;;;;;;9.70;99.90;;;;;;5178041;27;19922;-42
2023/10/25 02:04:59;;;;;;;;;;;9.80;99.90;;;;;;5159817;27;20250;-43
2023/10/25 02:07:24;;;;;;;;;;;9.70;99.90;;;;;;5178084;27;19929;-42
2023/10/25 02:09:50;;;;;;;;;;;9.70;99.90;;;;;;5177692;27;19974;-42
2023/10/25 02:12:15;;;;;;;;;;;9.70;99.90;;;;;;5177692;27;19923;-42
2023/10/25 02:14:41;;;;;;;;;;;9.70;99.90;;;;;;5177933;27;19923;-42
2023/10/25 02:17:07;;;;;;;;;;;9.70;99.90;;;;;;5177869;27;19969;-42
2023/10/25 02:19:33;;;;;;;;;;;9.70;99.90;;;;;;5177718;27;20278;-42
2023/10/25 02:21:59;;;;;;;;;;;9.70;99.90;;;;;;5177626;27;19966;-42
2023/10/25 02:24:25;;;;;;;;;;;9.70;99.90;;;;;;5177507;27;19927;-43
2023/10/25 02:26:51;;;;;;;;;;;9.70;99.90;;;;;;5177376;27;19929;-42
2023/10/25 02:29:17;;;;;;;;;;;9.60;99.90;;;;;;5177674;27;19989;-42
2023/10/25 02:31:42;;;;;;;;;;;9.70;99.90;;;;;;5158873;27;20373;-42
2023/10/25 02:34:08;;;;;;;;;;;9.60;99.90;;;;;;5177193;27;20050;-41
2023/10/25 02:36:35;;;;;;;;;;;9.60;99.90;;;;;;5177552;27;20385;-41
2023/10/25 02:39:00;;;;;;;;;;;9.60;99.90;;;;;;5158980;27;19923;-42
2023/10/25 02:41:26;;;;;;;;;;;9.60;99.90;;;;;;5177144;27;19923;-42
2023/10/25 02:43:53;;;;;;;;;;;9.60;99.90;;;;;;5177617;27;20296;-41
2023/10/25 02:46:19;;;;;;;;;;;9.50;99.90;;;;;;5158921;27;19922;-41
2023/10/25 02:48:45;;;;;;;;;;;9.50;99.90;;;;;;5158687;27;19927;-41
2023/10/25 02:51:10;;;;;;;;;;;9.50;99.90;;;;;;5176820;27;19923;-42
2023/10/25 02:53:36;;;;;;;;;;;9.50;99.90;;;;;;5177088;27;19922;-42
2023/10/25 02:56:02;;;;;;;;;;;9.50;99.90;;;;;;5176984;27;19923;-42
2023/10/25 02:58:28;;;;;;;;;;;9.40;99.90;;;;;;5177311;27;19922;-42
2023/10/25 03:00:53;;;;;;;;;;;9.40;99.90;;;;;;5177089;27;19926;-42
2023/10/25 03:03:19;;;;;;;;;;;9.40;99.90;;;;;;5176993;27;20421;-43
2023/10/25 03:05:44;;;;;;;;;;;9.40;99.90;;;;;;5176898;27;19967;-41
2023/10/25 03:08:10;;;;;;;;;;;9.40;99.90;;;;;;5141172;27;19945;-42
2023/10/25 03:10:35;;;;;;;;;;;9.40;99.90;;;;;;5176665;27;19930;-42
2023/10/25 03:13:02;;;;;;;;;;;9.40;99.90;;;;;;5176948;27;19973;-42
2023/10/25 03:15:27;;;;;;;;;;;9.40;99.90;;;;;;5177197;27;19929;-42
2023/10/25 03:17:53;;;;;;;;;;;9.40;99.90;;;;;;5158527;27;19922;-42
2023/10/25 03:20:18;;;;;;;;;;;9.40;99.90;;;;;;5176735;27;19922;-42
2023/10/25 03:22:44;;;;;;;;;;;9.30;99.90;;;;;;5176726;27;19926;-42
2023/10/25 03:25:09;;;;;;;;;;;9.40;99.90;;;;;;5176572;27;19927;-42
2023/10/25 03:27:35;;;;;;;;;;;9.30;99.90;;;;;;5176719;27;19922;-42
2023/10/25 03:30:01;;;;;;;;;;;9.30;99.90;;;;;;5176617;27;19923;-42
2023/10/25 03:32:27;;;;;;;;;;;9.30;99.90;;;;;;5176625;27;19922;-42
2023/10/25 03:34:53;;;;;;;;;;;9.30;99.90;;;;;;5176472;27;20426;-42
2023/10/25 03:37:18;;;;;;;;;;;9.30;99.90;;;;;;5176468;27;20035;-41
2023/10/25 03:39:44;;;;;;;;;;;9.30;99.90;;;;;;5176441;27;19927;-42
2023/10/25 03:42:09;;;;;;;;;;;9.30;99.90;;;;;;5176857;27;19923;-42
2023/10/25 03:44:35;;;;;;;;;;;9.30;99.90;;;;;;5176665;27;19969;-42
2023/10/25 03:47:00;;;;;;;;;;;9.30;99.90;;;;;;5179333;27;20392;-41
2023/10/25 03:49:26;;;;;;;;;;;9.30;99.90;;;;;;5180552;27;20009;-42
2023/10/25 03:51:52;;;;;;;;;;;9.30;99.90;;;;;;5180468;27;20314;-42
2023/10/25 03:54:18;;;;;;;;;;;9.30;99.90;;;;;;5180692;27;19926;-42
2023/10/25 03:56:43;;;;;;;;;;;9.20;99.90;;;;;;5180674;27;20362;-41
2023/10/25 03:59:09;;;;;;;;;;;9.30;99.90;;;;;;5180711;27;19922;-42
2023/10/25 04:01:34;;;;;;;;;;;9.20;99.90;;;;;;5180388;27;20395;-41
2023/10/25 04:04:00;;;;;;;;;;;9.20;99.90;;;;;;5180412;27;19929;-42
2023/10/25 04:06:25;;;;;;;;;;;9.20;99.90;;;;;;5180496;27;20434;-42
2023/10/25 04:08:51;;;;;;;;;;;9.20;99.90;;;;;;5180149;27;19929;-42
2023/10/25 04:11:16;;;;;;;;;;;9.20;99.90;;;;;;5180627;27;19982;-42
2023/10/25 04:13:43;;;;;;;;;;;9.20;99.90;;;;;;5180542;27;20289;-42
2023/10/25 04:16:09;;;;;;;;;;;9.20;99.90;;;;;;5161896;27;19922;-42
2023/10/25 04:18:35;;;;;;;;;;;9.20;99.90;;;;;;5180076;27;20326;-42
2023/10/25 04:21:01;;;;;;;;;;;9.20;99.90;;;;;;5180079;27;19974;-42
2023/10/25 04:23:30;;;;;;;;;;;9.20;99.90;;;;;;5179822;27;20412;-42
2023/10/25 04:26:02;;;;;;;;;;;9.20;99.90;;;;;;5180716;27;19922;-42
2023/10/25 04:28:28;;;;;;;;;;;9.20;99.90;;;;;;5180057;27;19923;-42
2023/10/25 04:30:54;;;;;;;;;;;9.20;99.90;;;;;;5179860;27;19933;-42
2023/10/25 04:33:19;;;;;;;;;;;9.20;99.90;;;;;;5179936;27;19923;-42
2023/10/25 04:35:45;;;;;;;;;;;9.20;99.90;;;;;;5179759;27;19922;-42
2023/10/25 04:38:10;;;;;;;;;;;9.20;99.90;;;;;;5179711;27;19922;-42
2023/10/25 04:40:36;;;;;;;;;;;9.20;99.90;;;;;;5179873;27;20333;-42
2023/10/25 04:43:01;;;;;;;;;;;9.10;99.90;;;;;;5179789;27;20341;-41
2023/10/25 04:45:29;;;;;;;;;;;9.20;99.90;;;;;;5179731;27;19923;-42
2023/10/25 04:47:54;;;;;;;;;;;9.10;99.90;;;;;;5179615;27;19927;-42
2023/10/25 04:50:20;;;;;;;;;;;9.10;99.90;;;;;;5179542;27;19930;-42
2023/10/25 04:52:46;;;;;;;;;;;9.10;99.90;;;;;;5179168;27;19970;-42
2023/10/25 04:55:12;;;;;;;;;;;9.10;99.90;;;;;;5179388;27;19922;-42
2023/10/25 04:57:37;;;;;;;;;;;9.10;99.90;;;;;;5179166;27;19923;-42
2023/10/25 05:00:03;;;;;;;;;;;9.10;99.90;;;;;;5179599;27;19926;-42
2023/10/25 05:02:29;;;;;;;;;;;9.10;99.90;;;;;;5179336;27;20281;-41
2023/10/25 05:04:55;;;;;;;;;;;9.10;99.90;;;;;;5160928;27;20073;-42
2023/10/25 05:07:21;;;;;;;;;;;9.10;99.90;;;;;;5178987;27;20468;-42
2023/10/25 05:09:47;;;;;;;;;;;9.10;99.90;;;;;;5179183;27;19971;-42
2023/10/25 05:12:14;;;;;;;;;;;9.10;99.90;;;;;;5179192;27;19923;-41
2023/10/25 05:14:39;;;;;;;;;;;9.10;99.90;;;;;;5179281;27;19922;-41
2023/10/25 05:17:06;;;;;;;;;;;9.10;99.90;;;;;;5179123;27;19929;-41
2023/10/25 05:19:32;;;;;;;;;;;9.10;99.90;;;;;;5178822;27;19923;-41
2023/10/25 05:22:01;;;;;;;;;;;9.10;99.90;;;;;;5178733;27;19923;-42
2023/10/25 05:24:27;;;;;;;;;;;9.10;99.90;;;;;;5178963;27;19926;-41
2023/10/25 05:26:52;;;;;;;;;;;9.00;99.90;;;;;;5179044;27;19946;-41
2023/10/25 05:29:18;;;;;;;;;;;9.00;99.90;;;;;;5178685;27;19922;-42
2023/10/25 05:31:44;;;;;;;;;;;9.00;99.90;;;;;;5178456;27;19930;-42
2023/10/25 05:34:09;;;;;;;;;;;9.00;99.90;;;;;;5178635;27;19923;-41
2023/10/25 05:36:36;;;;;;;;;;;9.00;99.90;;;;;;5178390;27;19923;-42
2023/10/25 05:39:02;;;;;;;;;;;9.00;99.90;;;;;;5178947;27;19926;-42
2023/10/25 05:41:30;;;;;;;;;;;9.00;99.90;;;;;;5178646;27;20494;-42
2023/10/25 05:44:02;;;;;;;;;;;8.90;99.90;;;;;;5160159;27;19923;-41
2023/10/25 05:46:27;;;;;;;;;;;8.90;99.90;;;;;;5178505;27;19975;-42
2023/10/25 05:48:54;;;;;;;;;;;8.90;99.90;;;;;;5178322;27;19922;-41
2023/10/25 05:51:20;;;;;;;;;;;8.90;99.90;;;;;;5178143;27;20510;-41
2023/10/25 05:53:47;;;;;;;;;;;8.80;99.90;;;;;;5178122;27;19970;-41
2023/10/25 05:56:13;;;;;;;;;;;8.90;99.90;;;;;;5178388;27;19988;-41
2023/10/25 05:58:38;;;;;;;;;;;8.80;99.90;;;;;;5178318;27;19926;-41
2023/10/25 06:01:07;;;;;;;;;;;8.80;99.90;;;;;;5178323;27;20335;-41
2023/10/25 06:03:34;;;;;;;;;;;8.80;99.90;;;;;;5178102;27;20330;-41
2023/10/25 06:06:00;;;;;;;;;;;8.80;99.90;;;;;;5178111;27;19928;-41
2023/10/25 06:08:26;;;;;;;;;;;8.80;99.90;;;;;;5177387;27;19922;-41
2023/10/25 06:10:51;;;;;;;;;;;8.80;99.90;;;;;;5177835;27;19923;-41
2023/10/25 06:13:17;;;;;;;;;;;8.70;99.90;;;;;;5178080;27;19922;-41
2023/10/25 06:15:43;;;;;;;;;;;8.70;99.90;;;;;;5159144;27;19923;-41
2023/10/25 06:18:10;;;;;;;;;;;8.70;99.90;;;;;;5177687;27;19929;-41
2023/10/25 06:20:35;;;;;;;;;;;8.70;99.90;;;;;;5178258;27;19991;-41
2023/10/25 06:23:01;;;;;;;;;;;8.70;99.90;;;;;;5159247;27;19923;-41
2023/10/25 06:25:28;;;;;;;;;;;8.60;99.90;;;;;;5177708;27;19922;-41
2023/10/25 06:27:56;;;;;;;;;;;8.60;99.90;;;;;;5177658;27;19923;-41
2023/10/25 06:30:21;;;;;;;;;;;8.50;99.90;;;;;;5177598;27;19930;-41
2023/10/25 06:32:47;;;;;;;;;;;8.60;99.90;;;;;;5177319;27;19949;-42
2023/10/25 06:35:13;;;;;;;;;;;8.60;99.90;;;;;;5177530;27;19923;-42
2023/10/25 06:37:38;;;;;;;;;;;8.60;99.90;;;;;;5177433;27;19930;-41
2023/10/25 06:40:04;;;;;;;;;;;8.50;99.90;;;;;;5177569;27;19927;-41
2023/10/25 06:42:30;;;;;;;;;;;8.50;99.90;;;;;;5177430;27;19922;-41
2023/10/25 06:44:55;;;;;;;;;;;8.50;99.90;;;;;;5177302;27;19923;-41
2023/10/25 06:47:21;;;;;;;;;;;8.50;99.90;;;;;;5176952;27;20374;-41
2023/10/25 06:49:47;;;;;;;;;;;8.50;99.90;;;;;;5177319;27;20009;-41
2023/10/25 06:52:13;;;;;;;;;;;8.50;99.90;;;;;;5177077;27;19923;-41
2023/10/25 06:54:38;;;;;;;;;;;8.50;99.90;;;;;;5177154;27;19997;-41
2023/10/25 06:57:04;;;;;;;;;;;8.50;99.90;;;;;;5177237;27;19926;-41
2023/10/25 06:59:30;;;;;;;;;;;8.60;99.90;;;;;;5177199;27;19929;-41
2023/10/25 07:02:15;;;;;;;;;;;8.60;99.90;;;;;;5176926;27;19923;-42
2023/10/25 07:04:41;;;;;;;;;;;8.60;99.90;;;;;;5176240;27;19923;-41
2023/10/25 07:07:09;;;;;;;;;;;8.60;99.90;;;;;;5177014;27;20022;-42
2023/10/25 07:09:34;;;;;;;;;;;8.70;99.90;;;;;;5176987;27;19934;-41
2023/10/25 07:12:00;;;;;;;;;;;8.70;99.90;;;;;;5176823;27;19923;-41
2023/10/25 07:14:26;;;;;;;;;;;8.70;99.90;;;;;;5158300;27;19923;-41
2023/10/25 07:16:51;;;;;;;;;;;8.70;99.90;;;;;;5176840;27;19927;-41
2023/10/25 07:19:17;;;;;;;;;;;8.70;99.90;;;;;;5176826;27;20334;-41
2023/10/25 07:21:42;;;;;;;;;;;8.80;99.90;;;;;;5175908;27;19929;-41
2023/10/25 07:24:08;;;;;;;;;;;8.80;99.90;;;;;;5176823;27;19922;-41
2023/10/25 07:26:34;;;;;;;;;;;8.80;99.90;;;;;;5176778;27;20300;-41
2023/10/25 07:29:00;;;;;;;;;;;8.80;99.90;;;;;;5176526;27;20005;-41
2023/10/25 07:31:25;;;;;;;;;;;8.90;99.90;;;;;;5176616;27;19922;-41
2023/10/25 07:33:51;;;;;;;;;;;8.90;99.90;;;;;;5176641;27;19923;-41
2023/10/25 07:36:16;;;;;;;;;;;8.90;99.90;;;;;;5176711;27;19930;-41
2023/10/25 07:38:42;;;;;;;;;;;8.90;99.90;;;;;;5176636;27;20361;-41
2023/10/25 07:41:07;;;;;;;;;;;8.90;99.90;;;;;;5176511;27;20391;-41
2023/10/25 07:43:33;;;;;;;;;;;8.90;99.90;;;;;;5176491;27;19929;-41
2023/10/25 07:45:58;;;;;;;;;;;8.90;99.90;;;;;;5176474;27;19923;-41
2023/10/25 07:48:24;;;;;;;;;;;9.00;99.90;;;;;;5176530;27;20009;-41
2023/10/25 07:50:49;;;;;;;;;;;8.90;99.90;;;;;;5176529;27;19974;-41
2023/10/25 07:53:15;;;;;;;;;;;9.00;99.90;;;;;;5176382;27;19923;-41
2023/10/25 07:55:41;;;;;;;;;;;9.00;99.90;;;;;;5176304;27;20022;-41
2023/10/25 07:58:07;;;;;;;;;;;9.10;99.90;;;;;;5176272;27;20372;-41
2023/10/25 08:00:33;;;;;;;;;;;9.10;99.90;;;;;;5176135;27;19979;-41
2023/10/25 08:02:59;;;;;;;;;;;9.10;99.90;;;;;;5176578;27;20348;-41
2023/10/25 08:05:25;;;;;;;;;;;9.10;99.90;;;;;;5176210;27;19973;-41
2023/10/25 08:07:50;;;;;;;;;;;9.10;99.90;;;;;;5176186;27;19930;-41
2023/10/25 08:10:16;;;;;;;;;;;9.20;99.90;;;;;;5157698;27;19923;-41
2023/10/25 08:12:42;;;;;;;;;;;9.10;99.90;;;;;;5176199;27;19967;-41
2023/10/25 08:15:08;;;;;;;;;;;9.20;99.90;;;;;;5157826;27;19923;-41
2023/10/25 08:17:33;;;;;;;;;;;9.20;99.90;;;;;;5176177;27;19975;-41
2023/10/25 08:19:59;;;;;;;;;;;9.20;99.90;;;;;;5176324;27;20372;-41
2023/10/25 08:22:25;;;;;;;;;;;9.20;99.90;;;;;;5176045;27;19975;-41
2023/10/25 08:24:50;;;;;;;;;;;9.20;99.90;;;;;;5176095;27;19923;-41
2023/10/25 08:27:16;;;;;;;;;;;9.20;99.90;;;;;;5175996;27;19967;-41
2023/10/25 08:29:42;;;;;;;;;;;9.30;99.90;;;;;;5157564;27;19923;-41
2023/10/25 08:32:08;;;;;;;;;;;9.30;99.90;;;;;;5177148;27;20018;-41
2023/10/25 08:34:33;;;;;;;;;;;9.30;99.90;;;;;;5179890;27;19923;-41
2023/10/25 08:36:59;;;;;;;;;;;9.30;99.90;;;;;;5180076;27;19927;-41
2023/10/25 08:39:24;;;;;;;;;;;9.40;99.90;;;;;;5179834;27;19926;-41
2023/10/25 08:41:50;;;;;;;;;;;9.40;99.90;;;;;;5179741;27;19923;-41
2023/10/25 08:44:16;;;;;;;;;;;9.40;99.90;;;;;;5179574;27;20017;-41
2023/10/25 08:46:42;;;;;;;;;;;9.50;99.90;;;;;;5179690;27;20385;-41
2023/10/25 08:49:08;;;;;;;;;;;9.50;99.90;;;;;;5180016;27;19923;-41
2023/10/25 08:51:35;;;;;;;;;;;9.50;99.90;;;;;;5179216;27;20029;-41
2023/10/25 08:54:01;;;;;;;;;;;9.60;99.90;;;;;;5179621;27;20397;-41
2023/10/25 08:56:26;;;;;;;;;;;9.60;99.90;;;;;;5179271;27;19977;-41
2023/10/25 08:58:56;;;;;;;;;;;9.60;99.90;;;;;;5160674;27;19930;-41
2023/10/25 09:01:21;;;;;;;;;;;9.60;99.90;;;;;;5179686;27;19975;-41
2023/10/25 09:03:47;;;;;;;;;;;9.70;99.90;;;;;;5179526;27;19923;-41
2023/10/25 09:06:22;;;;;;;;;;;9.70;99.90;;;;;;5179144;27;20266;-41
2023/10/25 09:08:55;;;;;;;;;;;9.70;99.90;;;;;;5179334;27;19926;-41
2023/10/25 09:11:21;;;;;;;;;;;9.80;99.90;;;;;;5179023;27;19975;-41
2023/10/25 09:13:54;;;;;;;;;;;9.80;99.90;;;;;;5178935;27;19933;-41
2023/10/25 09:16:19;;;;;;;;;;;9.80;99.90;;;;;;5179096;27;19927;-41
2023/10/25 09:18:45;;;;;;;;;;;9.80;99.90;;;;;;5178941;27;20085;-41
2023/10/25 09:21:10;;;;;;;;;;;9.80;99.90;;;;;;5178848;27;19930;-41
2023/10/25 09:23:36;;;;;;;;;;;9.80;99.90;;;;;;5178868;27;19930;-41
2023/10/25 09:26:11;;;;;;;;;;;9.90;99.90;;;;;;5178588;27;19923;-41
2023/10/25 09:28:37;;;;;;;;;;;9.90;99.90;;;;;;5178887;27;19923;-41
2023/10/25 09:31:18;;;;;;;;;;;9.90;99.90;;;;;;5178740;27;19930;-41
2023/10/25 09:33:46;;;;;;;;;;;9.90;99.90;;;;;;5178761;27;20396;-41
2023/10/25 09:36:12;;;;;;;;;;;10.00;99.90;;;;;;5178523;27;19922;-42
2023/10/25 09:38:38;;;;;;;;;;;10.00;99.90;;;;;;5178414;27;19922;-41
2023/10/25 09:41:03;;;;;;;;;;;10.00;99.90;;;;;;5178598;27;19967;-41
2023/10/25 09:43:31;;;;;;;;;;;10.00;99.90;;;;;;5159420;27;19924;-41
2023/10/25 09:45:57;;;;;;;;;;;10.00;99.90;;;;;;5178445;27;19923;-41
2023/10/25 09:48:22;;;;;;;;;;;10.00;99.90;;;;;;5178303;27;19968;-41
2023/10/25 09:51:03;;;;;;;;;;;10.10;99.90;;;;;;5178135;27;20018;-41
2023/10/25 09:53:46;;;;;;;;;;;10.10;99.90;;;;;;5178256;27;19946;-41
2023/10/25 09:56:11;;;;;;;;;;;10.10;99.90;;;;;;5178156;27;19929;-41
2023/10/25 09:58:37;;;;;;;;;;;10.10;99.90;;;;;;5178305;27;20021;-41
2023/10/25 10:01:03;;;;;;;;;;;10.10;99.90;;;;;;5178103;27;19927;-41
2023/10/25 10:03:44;;;;;;;;;;;10.10;99.90;;;;;;5178022;27;19923;-41
2023/10/25 10:06:19;;;;;;;;;;;10.10;99.90;;;;;;5178040;27;19931;-41
2023/10/25 10:08:54;;;;;;;;;;;10.20;99.90;;;;;;5177952;27;19926;-41
2023/10/25 10:11:23;;;;;;;;;;;10.20;99.90;;;;;;5177774;27;20377;-41
2023/10/25 10:14:09;;;;;;;;;;;10.20;99.90;;;;;;5177956;27;19929;-41
2023/10/25 10:16:34;;;;;;;;;;;10.30;99.90;;;;;;5177765;27;19933;-41
2023/10/25 10:19:00;;;;;;;;;;;10.30;99.90;;;;;;5177882;27;19922;-41
2023/10/25 10:21:26;;;;;;;;;;;10.40;99.90;;;;;;5177795;27;19930;-42
2023/10/25 10:23:51;;;;;;;;;;;10.40;99.90;;;;;;5177671;27;20075;-41
2023/10/25 10:26:35;;;;;;;;;;;10.40;99.90;;;;;;5159348;27;19923;-41
2023/10/25 10:29:01;;;;;;;;;;;10.50;99.90;;;;;;5177704;27;20052;-41
2023/10/25 10:31:26;;;;;;;;;;;10.50;99.90;;;;;;5177621;27;20021;-41
2023/10/25 10:33:52;;;;;;;;;;;10.60;99.90;;;;;;5177601;27;19930;-41
2023/10/25 10:36:25;;;;;;;;;;;10.70;99.90;;;;;;5177278;27;19923;-41
2023/10/25 10:39:09;;;;;;;;;;;10.70;99.90;;;;;;5177370;27;19922;-41
2023/10/25 10:41:34;;;;;;;;;;;10.80;99.90;;;;;;5177434;27;19926;-41
2023/10/25 10:44:00;;;;;;;;;;;10.90;99.90;;;;;;5177397;27;19923;-41
2023/10/25 10:46:29;;;;;;;;;;;10.90;99.90;;;;;;5177327;27;20013;-41
2023/10/25 10:48:55;;;;;;;;;;;11.00;99.90;;;;;;5177209;27;19926;-41
2023/10/25 10:51:20;;;;;;;;;;;11.00;99.90;;;;;;5177073;27;20262;-41
2023/10/25 10:53:46;;;;;;;;;;;11.10;99.90;;;;;;5176824;27;19927;-41
2023/10/25 10:56:12;;;;;;;;;;;11.20;99.90;;;;;;5176811;27;19930;-42
2023/10/25 10:58:37;;;;;;;;;;;11.20;99.90;;;;;;5177169;27;20021;-41
2023/10/25 11:01:03;;;;;;;;;;;11.20;99.90;;;;;;5158467;27;19923;-41
2023/10/25 11:03:28;;;;;;;;;;;11.20;99.90;;;;;;5176977;27;19922;-41
2023/10/25 11:05:56;;;;;;;;;;;11.30;99.90;;;;;;5158324;27;19934;-42
2023/10/25 11:08:23;;;;;;;;;;;11.30;99.90;;;;;;5176774;27;19923;-41
2023/10/25 11:10:49;;;;;;;;;;;11.40;99.90;;;;;;5176887;27;19923;-41
2023/10/25 11:13:17;;;;;;;;;;;11.40;99.90;;;;;;5176814;27;20338;-42
2023/10/25 11:15:42;;;;;;;;;;;11.50;99.90;;;;;;5177100;27;19975;-41
2023/10/25 11:18:08;;;;;;;;;;;11.50;99.90;;;;;;5176658;27;19923;-41
2023/10/25 11:20:34;;;;;;;;;;;11.50;99.90;;;;;;5176551;27;19923;-41
2023/10/25 11:23:02;;;;;;;;;;;11.60;99.90;;;;;;5176450;27;19923;-41
2023/10/25 11:25:29;;;;;;;;;;;11.70;99.90;;;;;;5176738;27;20397;-41
2023/10/25 11:27:56;;;;;;;;;;;11.80;99.90;;;;;;5176676;27;20297;-41
2023/10/25 11:30:21;;;;;;;;;;;11.80;99.90;;;;;;5157814;27;19923;-42
2023/10/25 11:32:47;;;;;;;;;;;11.90;99.90;;;;;;5176482;27;19934;-42
2023/10/25 11:35:27;;;;;;;;;;;11.90;99.90;;;;;;5176455;27;19923;-41
2023/10/25 11:37:53;;;;;;;;;;;12.00;99.90;;;;;;5176752;27;20285;-42
2023/10/25 11:40:19;;;;;;;;;;;12.00;99.90;;;;;;5176701;27;19923;-41
2023/10/25 11:42:45;;;;;;;;;;;12.00;99.90;;;;;;5176720;27;19927;-41
2023/10/25 11:45:10;;;;;;;;;;;12.00;99.90;;;;;;5176465;27;20385;-41
2023/10/25 11:47:37;;;;;;;;;;;12.00;99.90;;;;;;5176266;27;19968;-41
2023/10/25 11:50:03;;;;;;;;;;;12.00;99.90;;;;;;5176157;27;19930;-41
2023/10/25 11:52:30;;;;;;;;;;;12.00;99.90;;;;;;5176272;27;19948;-41
2023/10/25 11:54:56;;;;;;;;;;;12.00;99.90;;;;;;5176402;27;19930;-41
2023/10/25 11:57:27;;;;;;;;;;;12.00;99.90;;;;;;5157563;27;20306;-41
2023/10/25 11:59:52;;;;;;;;;;;12.00;99.90;;;;;;5157976;27;19973;-41
2023/10/25 12:02:19;;;;;;;;;;;12.00;99.90;;;;;;5176095;27;19966;-41
2023/10/25 12:04:45;;;;;;;;;;;12.00;99.90;;;;;;5176069;27;20017;-41
2023/10/25 12:07:10;;;;;;;;;;;12.00;99.90;;;;;;5177693;27;19965;-41
2023/10/25 12:09:38;;;;;;;;;;;12.10;99.90;;;;;;5180592;27;20253;-41
2023/10/25 12:12:04;;;;;;;;;;;12.00;99.90;;;;;;5180290;27;19923;-41
2023/10/25 12:14:30;;;;;;;;;;;12.00;99.90;;;;;;5161725;27;19923;-41
2023/10/25 12:16:55;;;;;;;;;;;12.00;99.90;;;;;;5180265;27;20325;-41
2023/10/25 12:19:21;;;;;;;;;;;12.00;99.90;;;;;;5179900;27;19931;-42
2023/10/25 12:21:46;;;;;;;;;;;12.00;99.90;;;;;;5179988;27;20009;-41
2023/10/25 12:24:12;;;;;;;;;;;12.00;99.90;;;;;;5162067;27;19923;-41
2023/10/25 12:26:37;;;;;;;;;;;12.00;99.90;;;;;;5180157;27;20250;-41
2023/10/25 12:29:03;;;;;;;;;;;12.00;99.90;;;;;;5179884;27;20025;-41
2023/10/25 12:31:28;;;;;;;;;;;12.00;99.90;;;;;;5179688;27;19968;-41
2023/10/25 12:33:54;;;;;;;;;;;12.00;99.90;;;;;;5179746;27;19938;-41
2023/10/25 12:36:19;;;;;;;;;;;12.00;99.90;;;;;;5179954;27;19930;-41
2023/10/25 12:38:45;;;;;;;;;;;12.00;99.90;;;;;;5180206;27;20009;-41
2023/10/25 12:41:11;;;;;;;;;;;11.90;99.90;;;;;;5161490;27;20373;-41
2023/10/25 12:43:36;;;;;;;;;;;11.90;99.90;;;;;;5179951;27;19923;-41
2023/10/25 12:46:02;;;;;;;;;;;11.90;99.90;;;;;;5179685;27;19946;-42
2023/10/25 12:48:27;;;;;;;;;;;11.90;99.90;;;;;;5144088;27;19922;-41
2023/10/25 12:50:53;;;;;;;;;;;11.90;99.90;;;;;;5179571;27;19975;-41
2023/10/25 12:53:18;;;;;;;;;;;11.90;99.90;;;;;;5179624;27;19930;-41
2023/10/25 12:55:44;;;;;;;;;;;11.90;99.90;;;;;;5179358;27;19926;-41
2023/10/25 12:58:09;;;;;;;;;;;11.90;99.90;;;;;;5161202;27;19922;-41
2023/10/25 13:00:35;;;;;;;;;;;11.80;99.90;;;;;;5179351;27;19930;-41
2023/10/25 13:03:01;;;;;;;;;;;11.80;99.90;;;;;;5179075;27;19922;-41
2023/10/25 13:05:27;;;;;;;;;;;11.80;99.90;;;;;;5179113;27;19967;-41
2023/10/25 13:07:52;;;;;;;;;;;11.80;99.90;;;;;;5179685;27;19923;-41
2023/10/25 13:10:18;;;;;;;;;;;11.80;99.90;;;;;;5179146;27;19969;-41
2023/10/25 13:12:43;;;;;;;;;;;11.80;99.90;;;;;;5179271;27;19923;-41
2023/10/25 13:15:09;;;;;;;;;;;11.80;99.90;;;;;;5178969;27;20317;-41
2023/10/25 13:17:34;;;;;;;;;;;11.80;99.90;;;;;;5178908;27;20017;-41
2023/10/25 13:20:02;;;;;;;;;;;11.80;99.90;;;;;;5179089;27;20025;-41
2023/10/25 13:22:28;;;;;;;;;;;11.80;99.90;;;;;;5179059;27;19945;-41
2023/10/25 13:24:54;;;;;;;;;;;11.70;99.90;;;;;;5178881;27;19927;-41
2023/10/25 13:27:19;;;;;;;;;;;11.80;99.90;;;;;;5178842;27;19929;-41
2023/10/25 13:29:45;;;;;;;;;;;11.80;99.90;;;;;;5178681;27;20389;-41
2023/10/25 13:32:11;;;;;;;;;;;11.80;99.90;;;;;;5178593;27;19930;-42
2023/10/25 13:34:36;;;;;;;;;;;11.80;99.90;;;;;;5178814;27;19923;-41
2023/10/25 13:37:02;;;;;;;;;;;11.80;99.90;;;;;;5178925;27;19930;-41
2023/10/25 13:39:27;;;;;;;;;;;11.80;99.90;;;;;;5178791;27;20005;-41
2023/10/25 13:41:53;;;;;;;;;;;11.80;99.90;;;;;;5178368;27;20357;-41
2023/10/25 13:44:19;;;;;;;;;;;11.80;99.90;;;;;;5178454;27;19922;-41
2023/10/25 13:46:44;;;;;;;;;;;11.70;99.90;;;;;;5178214;27;19971;-41
2023/10/25 13:49:10;;;;;;;;;;;11.80;99.90;;;;;;5178574;27;19922;-41
2023/10/25 13:51:39;;;;;;;;;;;11.70;99.90;;;;;;5159714;27;19923;-41
2023/10/25 13:54:05;;;;;;;;;;;11.70;99.90;;;;;;5178340;27;19923;-41
2023/10/25 13:56:31;;;;;;;;;;;11.70;99.90;;;;;;5178345;27;20021;-41
2023/10/25 13:58:56;;;;;;;;;;;11.70;99.90;;;;;;5178255;27;20009;-41
2023/10/25 14:01:22;;;;;;;;;;;11.70;99.90;;;;;;5178005;27;20258;-41
2023/10/25 14:03:48;;;;;;;;;;;11.80;99.90;;;;;;5178266;27;19983;-41
2023/10/25 14:06:16;;;;;;;;;;;11.80;99.90;;;;;;5178294;27;20357;-41
2023/10/25 14:08:43;;;;;;;;;;;11.70;99.90;;;;;;5178097;27;19926;-41
2023/10/25 14:11:09;;;;;;;;;;;11.70;99.90;;;;;;5178121;27;19990;-41
2023/10/25 14:13:34;;;;;;;;;;;11.70;99.90;;;;;;5177866;27;19927;-42
2023/10/25 14:16:05;;;;;;;;;;;11.70;99.90;;;;;;5177687;27;19977;-42
2023/10/25 14:18:30;;;;;;;;;;;11.70;99.90;;;;;;5177970;27;19929;-42